Time;durP1;ratioP1;P1;durP2;ratioP2;P2;SDS_P1;SDS_P2;PMS_P1;PMS_P2;Temp;Humidity;BMP_temperature;BMP_pressure;BME280_temperature;BME280_humidity;BME280_pressure;Samples;Min_cycle;Max_cycle;Signal;HPM_P1;HPM_P2
2021/05/20 00:02:12;;;;;;;2.03;1.92;;;22.90;52.10;;;;;;5118469;27;20038;-42
2021/05/20 00:04:38;;;;;;;1.70;1.60;;;22.90;51.30;;;;;;5115814;27;20024;-42
2021/05/20 00:07:04;;;;;;;1.73;1.63;;;22.90;51.30;;;;;;5113927;27;20104;-43
2021/05/20 00:09:29;;;;;;;2.25;2.15;;;22.90;51.30;;;;;;5114831;27;20023;-42
2021/05/20 00:11:55;;;;;;;1.98;1.88;;;22.90;51.90;;;;;;5112042;27;20032;-43
2021/05/20 00:14:21;;;;;;;1.27;1.23;;;22.90;51.30;;;;;;5116041;27;20052;-43
2021/05/20 00:16:47;;;;;;;1.80;1.70;;;22.90;51.20;;;;;;5123923;27;20043;-42
2021/05/20 00:19:12;;;;;;;1.50;1.40;;;22.90;51.20;;;;;;5120046;27;20098;-43
2021/05/20 00:21:38;;;;;;;1.70;1.60;;;22.90;51.20;;;;;;5108249;28;20023;-42
2021/05/20 00:24:04;;;;;;;2.38;1.70;;;22.80;51.20;;;;;;5109350;27;20602;-43
2021/05/20 00:26:32;;;;;;;1.70;1.60;;;22.80;51.10;;;;;;5113947;27;20035;-43
2021/05/20 00:28:57;;;;;;;1.73;1.63;;;22.90;51.20;;;;;;5115507;27;20032;-42
2021/05/20 00:31:23;;;;;;;1.88;1.77;;;22.80;51.10;;;;;;5113193;27;20027;-42
2021/05/20 00:33:48;;;;;;;1.98;1.88;;;22.80;51.00;;;;;;5113378;27;20062;-43
2021/05/20 00:36:14;;;;;;;1.67;1.58;;;22.90;51.00;;;;;;5109055;28;20119;-42
2021/05/20 00:38:39;;;;;;;1.52;1.42;;;22.90;50.90;;;;;;5126955;27;20035;-43
2021/05/20 00:41:05;;;;;;;1.60;1.50;;;22.80;50.90;;;;;;5116307;27;20027;-43
2021/05/20 00:43:31;;;;;;;1.50;1.40;;;22.70;51.10;;;;;;5109662;27;20032;-42
2021/05/20 00:45:56;;;;;;;1.27;1.27;;;22.80;51.10;;;;;;5114818;27;20027;-43
2021/05/20 00:48:22;;;;;;;1.42;1.42;;;22.80;51.10;;;;;;5113782;27;20016;-43
2021/05/20 00:50:48;;;;;;;1.58;1.45;;;22.80;51.10;;;;;;5110423;28;20508;-42
2021/05/20 00:53:13;;;;;;;1.42;1.33;;;22.80;51.00;;;;;;5128867;27;20023;-42
2021/05/20 00:55:39;;;;;;;1.50;1.40;;;22.70;51.70;;;;;;5113764;27;20522;-42
2021/05/20 00:58:06;;;;;;;1.50;1.40;;;22.70;51.10;;;;;;5114323;27;20102;-43
2021/05/20 01:00:31;;;;;;;1.38;1.30;;;22.70;51.10;;;;;;5094982;27;20031;-42
2021/05/20 01:02:57;;;;;;;1.50;1.40;;;22.70;51.10;;;;;;5109097;28;20027;-42
2021/05/20 01:05:22;;;;;;;1.60;1.50;;;22.70;51.10;;;;;;5125191;27;20501;-43
2021/05/20 01:07:48;;;;;;;1.52;1.42;;;22.60;51.50;;;;;;5113636;27;20030;-43
2021/05/20 01:10:14;;;;;;;1.40;1.30;;;22.40;51.70;;;;;;5117212;27;20052;-42
2021/05/20 01:12:39;;;;;;;1.90;1.80;;;22.50;51.50;;;;;;5122107;27;20023;-42
2021/05/20 01:15:16;;;;;;;1.23;1.20;;;22.50;51.60;;;;;;5106443;27;20032;-43
2021/05/20 01:17:42;;;;;;;1.45;1.40;;;22.50;51.70;;;;;;5110371;27;20024;-42
2021/05/20 01:20:08;;;;;;;1.45;1.40;;;22.40;51.70;;;;;;5111737;28;20035;-42
2021/05/20 01:22:33;;;;;;;1.33;1.33;;;22.40;51.80;;;;;;5114197;27;20111;-43
2021/05/20 01:24:59;;;;;;;1.35;1.30;;;22.30;52.00;;;;;;5109869;27;20106;-42
2021/05/20 01:27:24;;;;;;;1.20;1.20;;;22.30;52.00;;;;;;5120312;27;20517;-42
2021/05/20 01:29:50;;;;;;;1.50;1.40;;;22.30;52.70;;;;;;5108441;28;20032;-42
2021/05/20 01:32:16;;;;;;;1.20;1.20;;;22.30;52.10;;;;;;5116864;28;20028;-42
2021/05/20 01:34:41;;;;;;;1.50;1.40;;;22.20;52.20;;;;;;5112325;28;20034;-42
2021/05/20 01:37:08;;;;;;;1.77;1.65;;;22.20;52.20;;;;;;5113764;27;20581;-42
2021/05/20 01:39:34;;;;;;;1.10;1.10;;;22.20;52.20;;;;;;5113820;28;20022;-42
2021/05/20 01:41:59;;;;;;;1.20;1.20;;;22.20;52.20;;;;;;5109325;28;20029;-43
2021/05/20 01:44:25;;;;;;;1.00;1.00;;;22.10;52.20;;;;;;5114470;28;20027;-43
2021/05/20 01:46:51;;;;;;;1.02;1.02;;;22.10;52.20;;;;;;5114914;28;20111;-42
2021/05/20 01:49:16;;;;;;;1.30;1.20;;;22.10;52.30;;;;;;5113189;28;20077;-43
2021/05/20 01:51:42;;;;;;;1.30;1.20;;;22.10;52.30;;;;;;5112823;28;20019;-42
2021/05/20 01:54:08;;;;;;;1.27;1.27;;;22.10;52.20;;;;;;5112673;28;20031;-42
2021/05/20 01:56:36;;;;;;;1.30;0.93;;;22.10;52.20;;;;;;5111432;28;20409;-42
2021/05/20 01:59:08;;;;;;;1.25;1.15;;;22.10;52.90;;;;;;5124071;27;20050;-42
2021/05/20 02:01:34;;;;;;;1.05;1.05;;;22.20;52.00;;;;;;5113209;27;20031;-42
2021/05/20 02:04:00;;;;;;;1.23;1.13;;;22.20;52.00;;;;;;5097029;28;20104;-43
2021/05/20 02:06:25;;;;;;;1.00;1.00;;;22.20;52.00;;;;;;5113411;28;20031;-42
2021/05/20 02:08:51;;;;;;;0.98;0.98;;;22.30;51.80;;;;;;5107730;28;20051;-42
2021/05/20 02:11:17;;;;;;;0.93;0.93;;;22.30;51.80;;;;;;5116513;28;20028;-42
2021/05/20 02:13:42;;;;;;;1.00;1.00;;;22.30;51.80;;;;;;5112139;28;20038;-43
2021/05/20 02:16:08;;;;;;;1.02;1.02;;;22.30;51.70;;;;;;5113610;28;20071;-42
2021/05/20 02:18:34;;;;;;;1.60;0.90;;;22.40;51.50;;;;;;5110555;28;20097;-42
2021/05/20 02:20:59;;;;;;;0.90;0.90;;;22.40;51.50;;;;;;5109054;28;20031;-42
2021/05/20 02:23:25;;;;;;;1.33;1.23;;;22.30;51.60;;;;;;5113904;28;20019;-43
2021/05/20 02:25:50;;;;;;;0.90;0.90;;;22.30;51.60;;;;;;5113359;28;20124;-42
2021/05/20 02:28:16;;;;;;;0.80;0.80;;;22.30;52.30;;;;;;5113791;28;20518;-42
2021/05/20 02:30:41;;;;;;;1.23;0.90;;;22.20;51.80;;;;;;5113735;28;20052;-42
2021/05/20 02:33:07;;;;;;;0.82;0.82;;;22.30;51.90;;;;;;5109672;28;20024;-43
2021/05/20 02:35:33;;;;;;;0.75;0.70;;;22.20;51.90;;;;;;5113588;28;20028;-43
2021/05/20 02:37:58;;;;;;;0.90;0.90;;;22.30;51.70;;;;;;5117399;27;20027;-42
2021/05/20 02:40:24;;;;;;;0.85;0.85;;;22.30;51.60;;;;;;5117147;27;20066;-42
2021/05/20 02:42:49;;;;;;;0.82;0.82;;;22.30;51.80;;;;;;5115658;27;20158;-43
2021/05/20 02:45:19;;;;;;;0.80;0.80;;;22.30;51.70;;;;;;5115023;27;20023;-43
2021/05/20 02:47:45;;;;;;;0.77;0.77;;;22.10;52.00;;;;;;5111289;27;20027;-43
2021/05/20 02:50:11;;;;;;;0.82;0.82;;;22.10;52.10;;;;;;5125933;27;20554;-43
2021/05/20 02:52:37;;;;;;;0.82;0.82;;;22.20;51.90;;;;;;5117576;27;20019;-43
2021/05/20 02:55:03;;;;;;;0.50;0.50;;;22.20;51.70;;;;;;5115056;27;20106;-43
2021/05/20 02:57:30;;;;;;;0.77;0.77;;;22.20;51.70;;;;;;5111940;27;20035;-42
2021/05/20 02:59:56;;;;;;;0.90;0.90;;;22.20;51.60;;;;;;5128771;27;20153;-43
2021/05/20 03:02:22;;;;;;;0.70;0.70;;;22.20;51.70;;;;;;5118034;27;20085;-40
2021/05/20 03:04:47;;;;;;;0.80;0.70;;;22.20;51.80;;;;;;5117738;27;20028;-42
2021/05/20 03:07:13;;;;;;;0.65;0.65;;;22.10;52.00;;;;;;5112698;27;20031;-43
2021/05/20 03:09:42;;;;;;;0.73;0.73;;;22.10;52.60;;;;;;5116768;27;20027;-42
2021/05/20 03:12:08;;;;;;;0.80;0.80;;;22.00;52.10;;;;;;5114989;27;20023;-42
2021/05/20 03:14:34;;;;;;;0.50;0.50;;;22.10;51.90;;;;;;5114430;27;20060;-43
2021/05/20 03:17:00;;;;;;;0.73;0.73;;;22.10;51.80;;;;;;5118689;27;20127;-42
2021/05/20 03:19:25;;;;;;;0.70;0.70;;;22.20;51.70;;;;;;5115252;27;20481;-43
2021/05/20 03:21:51;;;;;;;0.70;0.70;;;22.20;51.70;;;;;;5116420;27;20077;-43
2021/05/20 03:24:16;;;;;;;0.70;0.70;;;22.20;51.60;;;;;;5115660;27;20528;-42
2021/05/20 03:26:42;;;;;;;0.80;0.80;;;22.20;51.60;;;;;;5111748;27;20024;-42
2021/05/20 03:29:08;;;;;;;0.77;0.77;;;22.20;51.60;;;;;;5119026;27;20024;-43
2021/05/20 03:31:33;;;;;;;0.90;0.90;;;22.20;51.60;;;;;;5115071;27;20496;-42
2021/05/20 03:33:59;;;;;;;0.60;0.60;;;22.20;51.50;;;;;;5113993;27;20066;-42
2021/05/20 03:36:24;;;;;;;0.60;0.60;;;22.20;51.60;;;;;;5115638;27;20031;-43
2021/05/20 03:38:50;;;;;;;0.70;0.70;;;22.20;51.70;;;;;;5111677;28;20502;-42
2021/05/20 03:41:16;;;;;;;1.00;0.82;;;22.20;51.50;;;;;;5118819;27;20035;-43
2021/05/20 03:43:41;;;;;;;0.60;0.60;;;22.20;51.40;;;;;;5116208;27;20031;-43
2021/05/20 03:46:07;;;;;;;0.80;0.80;;;22.20;51.50;;;;;;5116297;27;20028;-42
2021/05/20 03:48:33;;;;;;;0.60;0.60;;;22.20;51.50;;;;;;5113530;27;20023;-41
2021/05/20 03:51:00;;;;;;;0.82;0.82;;;22.10;51.70;;;;;;5111121;27;20024;-42
2021/05/20 03:53:31;;;;;;;0.60;0.60;;;22.20;51.60;;;;;;5116063;27;20550;-41
2021/05/20 03:56:00;;;;;;;0.60;0.47;;;22.20;51.60;;;;;;5117817;27;20036;-43
2021/05/20 03:58:26;;;;;;;0.60;0.60;;;22.20;51.40;;;;;;5113610;27;20020;-42
2021/05/20 04:00:52;;;;;;;0.68;0.68;;;22.20;51.40;;;;;;5115726;27;20035;-42
2021/05/20 04:03:27;;;;;;;0.75;0.75;;;22.20;51.30;;;;;;5115026;27;20030;-43
2021/05/20 04:05:56;;;;;;;0.70;0.60;;;22.20;51.50;;;;;;5095627;27;20032;-42
2021/05/20 04:08:22;;;;;;;0.50;0.50;;;22.20;52.00;;;;;;5116559;27;20041;-43
2021/05/20 04:10:48;;;;;;;0.70;0.70;;;22.20;52.00;;;;;;5116381;27;20042;-42
2021/05/20 04:13:25;;;;;;;0.50;0.50;;;22.30;51.20;;;;;;5115404;27;20097;-42
2021/05/20 04:15:51;;;;;;;0.60;0.60;;;22.30;51.30;;;;;;5114870;27;20118;-43
2021/05/20 04:18:16;;;;;;;0.60;0.60;;;22.30;51.30;;;;;;5112809;27;20518;-42
2021/05/20 04:20:42;;;;;;;0.63;0.60;;;22.20;51.30;;;;;;5111518;27;20469;-43
2021/05/20 04:23:07;;;;;;;2.35;0.77;;;22.20;51.40;;;;;;5099438;28;20031;-42
2021/05/20 04:25:33;;;;;;;0.75;0.60;;;22.20;51.50;;;;;;5115351;27;20115;-42
2021/05/20 04:27:59;;;;;;;0.60;0.60;;;22.20;51.40;;;;;;5115148;27;20042;-42
2021/05/20 04:30:25;;;;;;;0.50;0.50;;;22.20;51.30;;;;;;5106244;27;20024;-43
2021/05/20 04:32:50;;;;;;;0.60;0.60;;;22.30;51.10;;;;;;5125344;27;20016;-42
2021/05/20 04:35:16;;;;;;;0.50;0.50;;;22.30;51.30;;;;;;5117245;27;20030;-43
2021/05/20 04:37:41;;;;;;;1.33;0.52;;;22.20;51.30;;;;;;5108184;28;20047;-42
2021/05/20 04:40:07;;;;;;;0.65;0.57;;;22.20;51.20;;;;;;5113043;27;20066;-41
2021/05/20 04:42:33;;;;;;;0.60;0.60;;;22.30;51.30;;;;;;5113326;27;20027;-43
2021/05/20 04:44:58;;;;;;;0.70;0.70;;;22.20;51.20;;;;;;5109513;27;20405;-42
2021/05/20 04:47:24;;;;;;;1.67;0.70;;;22.30;51.20;;;;;;5111277;28;20043;-42
2021/05/20 04:49:49;;;;;;;0.60;0.60;;;22.30;51.10;;;;;;5112823;27;20032;-42
2021/05/20 04:52:15;;;;;;;0.98;0.57;;;22.30;50.90;;;;;;5091704;28;20024;-43
2021/05/20 04:54:41;;;;;;;0.60;0.60;;;22.30;51.10;;;;;;5114088;27;20114;-43
2021/05/20 04:57:07;;;;;;;0.52;0.52;;;22.30;51.00;;;;;;5108578;27;20101;-44
2021/05/20 04:59:33;;;;;;;0.50;0.50;;;22.30;50.90;;;;;;5104608;28;20027;-43
2021/05/20 05:01:58;;;;;;;0.57;0.57;;;22.30;50.90;;;;;;5113603;27;20027;-44
2021/05/20 05:04:24;;;;;;;1.42;0.90;;;22.20;51.10;;;;;;5093402;28;20489;-43
2021/05/20 05:06:49;;;;;;;0.50;0.50;;;22.30;51.90;;;;;;5112698;27;20027;-43
2021/05/20 05:09:15;;;;;;;0.70;0.70;;;22.30;51.40;;;;;;5106843;28;20015;-43
2021/05/20 05:11:41;;;;;;;0.47;0.47;;;22.20;51.80;;;;;;5110280;27;20095;-44
2021/05/20 05:14:06;;;;;;;0.77;0.68;;;22.20;52.00;;;;;;5113506;27;20097;-41
2021/05/20 05:16:32;;;;;;;1.83;0.63;;;22.20;52.10;;;;;;5109540;27;20062;-44
2021/05/20 05:18:57;;;;;;;0.73;0.70;;;22.20;52.50;;;;;;5093168;28;20035;-44
2021/05/20 05:21:23;;;;;;;0.50;0.50;;;22.20;52.40;;;;;;5092592;28;20109;-43
2021/05/20 05:23:49;;;;;;;0.95;0.85;;;22.10;52.70;;;;;;5093262;28;20034;-44
2021/05/20 05:26:14;;;;;;;0.50;0.50;;;22.20;52.30;;;;;;5095119;27;20040;-45
2021/05/20 05:28:40;;;;;;;0.60;0.50;;;22.20;52.00;;;;;;5090130;28;20205;-43
2021/05/20 05:31:07;;;;;;;0.60;0.60;;;22.30;52.20;;;;;;5087148;28;20031;-42
2021/05/20 05:33:33;;;;;;;2.47;0.80;;;22.20;52.70;;;;;;5079535;28;20047;-42
2021/05/20 05:35:58;;;;;;;1.45;0.80;;;22.20;52.50;;;;;;5079033;28;20942;-41
2021/05/20 05:38:24;;;;;;;0.80;0.80;;;22.20;53.80;;;;;;5075622;28;20108;-42
2021/05/20 05:40:49;;;;;;;1.10;0.63;;;22.10;52.90;;;;;;5082213;28;20043;-42
2021/05/20 05:43:15;;;;;;;1.38;0.50;;;22.20;52.40;;;;;;5080082;28;20114;-42
2021/05/20 05:45:40;;;;;;;0.90;0.45;;;22.20;52.20;;;;;;5080025;28;20043;-42
2021/05/20 05:48:10;;;;;;;1.17;0.63;;;22.20;52.10;;;;;;5078704;28;20032;-39
2021/05/20 05:50:36;;;;;;;0.80;0.80;;;22.10;52.50;;;;;;5078513;28;20056;-43
2021/05/20 05:53:03;;;;;;;0.77;0.75;;;22.10;52.70;;;;;;5081173;28;20111;-43
2021/05/20 05:55:29;;;;;;;0.57;0.57;;;22.10;52.70;;;;;;5081199;28;20032;-43
2021/05/20 05:57:55;;;;;;;2.65;0.60;;;22.10;52.50;;;;;;5083474;28;20046;-43
2021/05/20 06:00:21;;;;;;;0.52;0.50;;;22.10;52.80;;;;;;5084532;28;20417;-42
2021/05/20 06:02:46;;;;;;;0.57;0.57;;;22.20;52.50;;;;;;5080682;28;20031;-40
2021/05/20 06:05:12;;;;;;;1.08;0.52;;;22.20;52.90;;;;;;5081619;28;20409;-42
2021/05/20 06:07:38;;;;;;;1.58;0.60;;;22.20;52.70;;;;;;5059524;28;20055;-42
2021/05/20 06:10:04;;;;;;;0.63;0.63;;;22.20;52.40;;;;;;5081274;28;20024;-43
2021/05/20 06:12:30;;;;;;;1.45;0.60;;;22.20;52.80;;;;;;5082555;27;20032;-43
2021/05/20 06:14:55;;;;;;;0.68;0.50;;;22.20;52.60;;;;;;5079458;28;20044;-43
2021/05/20 06:17:21;;;;;;;0.75;0.52;;;22.20;53.60;;;;;;5080247;28;20082;-27
2021/05/20 06:19:47;;;;;;;0.98;0.57;;;22.10;53.20;;;;;;5076697;28;20082;-43
2021/05/20 06:22:12;;;;;;;0.50;0.50;;;22.20;52.90;;;;;;5063733;28;20039;-43
2021/05/20 06:24:38;;;;;;;1.35;0.60;;;22.30;52.80;;;;;;5069714;28;20402;-43
2021/05/20 06:27:04;;;;;;;0.95;0.63;;;22.30;52.90;;;;;;5062112;28;20067;-43
2021/05/20 06:29:29;;;;;;;0.52;0.43;;;22.30;52.70;;;;;;5064031;28;20036;-42
2021/05/20 06:31:55;;;;;;;0.57;0.50;;;22.30;52.70;;;;;;5069636;28;20036;-42
2021/05/20 06:34:20;;;;;;;0.70;0.60;;;22.40;52.70;;;;;;5061949;28;20028;-42
2021/05/20 06:36:46;;;;;;;1.35;0.60;;;22.30;52.80;;;;;;5063264;28;20109;-43
2021/05/20 06:39:12;;;;;;;0.55;0.52;;;22.40;52.90;;;;;;5061837;28;20525;-43
2021/05/20 06:41:37;;;;;;;1.30;0.50;;;22.40;52.70;;;;;;5059022;28;20052;-43
2021/05/20 06:44:04;;;;;;;1.02;0.80;;;22.50;51.90;;;;;;5062975;28;20524;-43
2021/05/20 06:46:29;;;;;;;0.63;0.60;;;22.50;52.40;;;;;;5064812;28;20141;-43
2021/05/20 06:48:55;;;;;;;0.63;0.57;;;22.60;51.70;;;;;;5065868;28;20542;-43
2021/05/20 06:51:20;;;;;;;0.50;0.50;;;22.50;52.30;;;;;;5068951;28;20127;-43
2021/05/20 06:53:48;;;;;;;0.70;0.50;;;22.50;52.30;;;;;;5067626;28;20602;-43
2021/05/20 06:56:18;;;;;;;0.50;0.50;;;22.30;53.10;;;;;;5068350;28;20067;-42
2021/05/20 07:01:28;;;;;;;0.60;0.60;;;22.20;53.70;;;;;;5069293;28;20140;-45
2021/05/20 07:03:53;;;;;;;0.70;0.65;;;22.30;53.00;;;;;;5064819;28;20106;-43
2021/05/20 07:06:19;;;;;;;0.85;0.60;;;22.30;53.80;;;;;;5063264;28;20032;-41
2021/05/20 07:08:45;;;;;;;1.25;0.50;;;22.40;53.20;;;;;;5033253;28;20471;-47
2021/05/20 07:11:10;;;;;;;1.30;0.50;;;22.50;52.70;;;;;;5049608;28;20923;-43
2021/05/20 07:13:36;;;;;;;2.38;0.77;;;22.60;52.80;;;;;;5064600;28;20084;-44
2021/05/20 07:16:02;;;;;;;0.63;0.60;;;22.60;52.00;;;;;;5058490;28;20041;-42
2021/05/20 07:18:27;;;;;;;2.38;0.40;;;22.70;51.80;;;;;;5060185;28;20043;-33
2021/05/20 07:20:53;;;;;;;0.93;0.70;;;22.60;51.70;;;;;;5061529;28;20036;-42
2021/05/20 07:23:19;;;;;;;0.82;0.60;;;22.70;51.90;;;;;;5058936;28;20040;-43
2021/05/20 07:25:45;;;;;;;1.10;0.70;;;22.70;52.20;;;;;;5059428;28;20040;-43
2021/05/20 07:28:10;;;;;;;1.10;0.70;;;22.60;52.80;;;;;;5059394;28;20032;-43
2021/05/20 07:30:36;;;;;;;1.65;0.60;;;22.70;51.90;;;;;;5060336;28;20119;-43
2021/05/20 07:33:02;;;;;;;0.70;0.50;;;22.80;51.60;;;;;;5041635;28;20036;-43
2021/05/20 07:35:27;;;;;;;1.35;0.50;;;22.90;51.40;;;;;;5059471;28;20048;-39
2021/05/20 07:37:53;;;;;;;0.80;0.50;;;22.80;51.40;;;;;;5059917;28;20032;-43
2021/05/20 07:40:19;;;;;;;2.67;0.52;;;22.80;51.50;;;;;;5040452;28;20504;-42
2021/05/20 07:42:46;;;;;;;0.80;0.60;;;22.90;51.10;;;;;;5058597;28;20035;-42
2021/05/20 07:45:12;;;;;;;1.27;0.65;;;22.90;51.20;;;;;;5041505;28;20116;-42
2021/05/20 07:47:38;;;;;;;0.88;0.50;;;22.90;51.20;;;;;;5057731;28;20789;-42
2021/05/20 07:50:04;;;;;;;2.00;0.70;;;22.90;51.20;;;;;;5059875;28;20082;-42
2021/05/20 07:52:30;;;;;;;0.70;0.70;;;22.70;53.60;;;;;;5039530;28;20135;-42
2021/05/20 07:54:56;;;;;;;0.98;0.70;;;22.60;53.60;;;;;;5039586;28;20126;-42
2021/05/20 07:57:22;;;;;;;0.40;0.38;;;22.60;52.60;;;;;;5055248;28;20047;-38
2021/05/20 07:59:47;;;;;;;0.98;0.55;;;22.70;52.10;;;;;;5058090;28;20079;-42
2021/05/20 08:02:27;;;;;;;0.88;0.50;;;22.70;52.40;;;;;;5059315;28;20037;-42
2021/05/20 08:04:58;;;;;;;0.65;0.65;;;22.80;52.50;;;;;;5057845;28;20036;-34
2021/05/20 08:12:27;;;;;;;2.47;0.60;;;22.80;53.00;;;;;;5059025;28;20032;-42
2021/05/20 08:14:54;;;;;;;1.10;0.40;;;22.80;52.90;;;;;;5076336;28;20051;-42
2021/05/20 08:17:19;;;;;;;2.40;0.60;;;22.80;53.30;;;;;;5079217;28;20126;-42
2021/05/20 08:19:45;;;;;;;1.30;0.40;;;22.80;52.80;;;;;;5060988;28;20052;-42
2021/05/20 08:22:10;;;;;;;0.98;0.40;;;22.80;53.70;;;;;;5083971;28;20394;-42
2021/05/20 08:24:36;;;;;;;1.15;0.50;;;22.90;52.70;;;;;;5083797;28;20035;-42
2021/05/20 08:27:01;;;;;;;1.17;0.30;;;22.70;53.80;;;;;;5085589;28;20126;-42
2021/05/20 08:29:29;;;;;;;1.00;0.80;;;22.50;54.60;;;;;;5087519;28;20506;-40
2021/05/20 08:31:54;;;;;;;0.63;0.50;;;22.70;53.90;;;;;;5087394;27;20046;-42
2021/05/20 08:34:20;;;;;;;0.57;0.40;;;22.80;53.70;;;;;;5083707;28;20521;-42
2021/05/20 08:36:45;;;;;;;0.75;0.50;;;22.80;53.20;;;;;;5084019;27;20040;-42
2021/05/20 08:39:11;;;;;;;1.20;0.40;;;22.80;53.20;;;;;;5084393;27;20035;-40
2021/05/20 08:41:36;;;;;;;1.80;0.90;;;22.70;54.50;;;;;;5083739;28;20028;-42
2021/05/20 08:44:11;;;;;;;0.90;0.70;;;22.70;54.60;;;;;;5084524;27;20024;-42
2021/05/20 08:46:36;;;;;;;1.95;0.60;;;22.70;54.70;;;;;;5073158;28;20027;-42
2021/05/20 08:49:02;;;;;;;1.10;0.50;;;22.60;55.00;;;;;;5090107;27;20035;-42
2021/05/20 08:51:28;;;;;;;1.20;0.50;;;22.70;55.30;;;;;;5086272;28;20031;-41
2021/05/20 08:53:53;;;;;;;0.70;0.50;;;22.70;55.20;;;;;;5058398;28;20408;-42
2021/05/20 08:56:19;;;;;;;1.30;0.60;;;22.70;54.60;;;;;;5088533;28;20092;-42
2021/05/20 08:58:45;;;;;;;1.23;0.52;;;22.60;54.40;;;;;;5085236;28;20039;-43
2021/05/20 09:01:10;;;;;;;0.75;0.47;;;22.60;54.90;;;;;;5083092;28;20036;-43
2021/05/20 09:03:36;;;;;;;1.13;0.50;;;22.50;55.50;;;;;;5086084;28;20058;-43
2021/05/20 09:06:05;;;;;;;1.58;0.60;;;22.30;56.00;;;;;;5088663;28;20402;-43
2021/05/20 09:08:34;;;;;;;0.80;0.40;;;22.30;55.60;;;;;;5088470;28;20040;-43
2021/05/20 09:11:01;;;;;;;1.15;0.68;;;22.30;55.80;;;;;;5085032;28;20024;-43
2021/05/20 09:13:29;;;;;;;0.63;0.55;;;22.20;56.90;;;;;;5086792;28;20082;-45
2021/05/20 09:15:55;;;;;;;0.68;0.50;;;22.30;55.30;;;;;;5069135;28;20055;-43
2021/05/20 09:18:24;;;;;;;0.52;0.45;;;22.50;54.40;;;;;;5086686;28;20039;-41
2021/05/20 09:20:51;;;;;;;1.17;0.50;;;22.50;54.90;;;;;;5085924;28;20035;-40
2021/05/20 09:23:21;;;;;;;0.52;0.50;;;22.30;55.70;;;;;;5089606;28;20057;-33
2021/05/20 09:25:47;;;;;;;0.80;0.40;;;22.30;55.70;;;;;;5082721;28;20093;-33
2021/05/20 09:28:14;;;;;;;0.70;0.40;;;22.30;55.40;;;;;;5082268;28;20036;-40
2021/05/20 09:30:46;;;;;;;1.23;0.57;;;22.40;54.90;;;;;;5088469;28;20035;-43
2021/05/20 09:33:16;;;;;;;0.90;0.35;;;22.60;54.50;;;;;;5084483;28;20040;-43
2021/05/20 09:35:43;;;;;;;0.50;0.30;;;22.60;54.90;;;;;;5087332;28;20062;-43
2021/05/20 09:38:20;;;;;;;0.80;0.40;;;22.50;55.20;;;;;;5087729;28;20016;-43
2021/05/20 09:40:51;;;;;;;0.70;0.40;;;22.40;55.30;;;;;;5083571;28;20501;-43
2021/05/20 09:43:17;;;;;;;2.75;0.40;;;22.40;55.30;;;;;;5082137;28;20051;-43
2021/05/20 09:45:44;;;;;;;0.95;0.38;;;22.50;54.90;;;;;;5088079;28;20031;-42
2021/05/20 09:48:09;;;;;;;0.30;0.30;;;22.50;55.20;;;;;;5087615;27;20473;-38
2021/05/20 09:50:36;;;;;;;0.90;0.50;;;22.40;55.60;;;;;;5090412;28;20103;-42
2021/05/20 09:53:02;;;;;;;1.33;0.32;;;22.40;54.80;;;;;;5085985;28;20432;-35
2021/05/20 09:55:28;;;;;;;0.40;0.30;;;22.50;54.80;;;;;;5065201;28;20062;-42
2021/05/20 09:57:54;;;;;;;0.47;0.30;;;22.50;54.70;;;;;;5091753;27;20510;-44
2021/05/20 10:00:24;;;;;;;0.77;0.35;;;22.60;54.60;;;;;;5091902;28;20036;-43
2021/05/20 10:03:01;;;;;;;0.40;0.40;;;22.60;54.30;;;;;;5085658;28;20082;-43
2021/05/20 10:05:46;;;;;;;0.50;0.30;;;22.60;55.00;;;;;;5093103;28;20039;-44
2021/05/20 10:08:16;;;;;;;0.65;0.40;;;22.70;55.10;;;;;;5094322;28;20111;-43
2021/05/20 10:10:44;;;;;;;0.40;0.30;;;22.70;55.10;;;;;;5088809;28;20101;-35
2021/05/20 10:13:16;;;;;;;0.20;0.20;;;22.80;54.80;;;;;;5087402;28;20403;-35
2021/05/20 10:15:42;;;;;;;0.20;0.20;;;22.70;54.70;;;;;;5090766;27;20504;-42
2021/05/20 10:18:12;;;;;;;0.38;0.30;;;22.80;54.70;;;;;;5091164;28;20058;-36
2021/05/20 10:20:39;;;;;;;0.43;0.30;;;22.70;54.90;;;;;;5092029;28;21269;-40
2021/05/20 10:23:15;;;;;;;0.38;0.30;;;22.60;54.60;;;;;;5072913;28;20079;-36
2021/05/20 10:25:42;;;;;;;0.35;0.30;;;22.60;54.70;;;;;;5092247;28;20031;-44
2021/05/20 10:28:09;;;;;;;0.83;0.40;;;22.70;54.30;;;;;;4736902;28;10000794;-39
2021/05/20 10:30:35;;;;;;;1.40;0.40;;;22.70;54.80;;;;;;5085206;28;20031;-43
2021/05/20 10:33:01;;;;;;;1.00;0.40;;;22.70;54.30;;;;;;5089517;28;20058;-36
2021/05/20 10:35:44;;;;;;;0.73;0.50;;;22.80;54.60;;;;;;5089590;28;20617;-43
2021/05/20 10:38:12;;;;;;;1.30;0.32;;;22.90;54.60;;;;;;5092631;27;20089;-44
2021/05/20 10:40:37;;;;;;;1.05;0.40;;;22.90;54.70;;;;;;5088120;28;20038;-44
2021/05/20 10:43:14;;;;;;;0.98;0.50;;;22.90;55.10;;;;;;5087425;28;20024;-43
2021/05/20 10:46:00;;;;;;;2.25;0.50;;;22.90;54.60;;;;;;5089940;28;20039;-33
2021/05/20 10:48:27;;;;;;;0.73;0.50;;;22.90;54.30;;;;;;5088841;27;20604;-42
2021/05/20 10:50:58;;;;;;;0.65;0.57;;;23.00;54.60;;;;;;5089382;28;20115;-37
2021/05/20 10:53:39;;;;;;;2.35;0.82;;;22.90;54.90;;;;;;5089249;28;20525;-41
2021/05/20 10:56:05;;;;;;;1.17;0.90;;;23.00;54.50;;;;;;5089481;27;20969;-47
2021/05/20 10:58:32;;;;;;;0.75;0.60;;;23.10;54.70;;;;;;5087804;27;20028;-40
2021/05/20 11:00:57;;;;;;;4.32;0.80;;;23.20;54.50;;;;;;5089085;28;20036;-39
2021/05/20 11:03:53;;;;;;;2.60;0.80;;;23.00;54.80;;;;;;5087220;28;20027;-31
2021/05/20 11:06:23;;;;;;;1.50;0.60;;;22.90;55.20;;;;;;5076548;28;20044;-42
2021/05/20 11:08:48;;;;;;;0.50;0.50;;;23.10;54.60;;;;;;5088327;28;20067;-41
2021/05/20 11:11:29;;;;;;;2.42;0.85;;;23.10;54.60;;;;;;5089792;28;20119;-41
2021/05/20 11:13:55;;;;;;;2.33;0.65;;;23.20;54.40;;;;;;5086610;27;20212;-42
2021/05/20 11:16:30;;;;;;;1.40;0.70;;;23.20;54.40;;;;;;5087594;27;20406;-42
2021/05/20 11:21:55;;;;;;;0.85;0.55;;;23.20;54.30;;;;;;5087670;27;20031;-42
2021/05/20 11:24:44;;;;;;;1.95;0.60;;;23.20;53.90;;;;;;5088241;27;20037;-42
2021/05/20 11:27:16;;;;;;;0.88;0.65;;;23.20;55.20;;;;;;5075162;28;20040;-43
2021/05/20 11:29:42;;;;;;;0.70;0.65;;;23.20;53.90;;;;;;5085915;28;20112;-42
2021/05/20 11:32:17;;;;;;;2.03;0.60;;;23.30;53.60;;;;;;5089954;27;20039;-43
2021/05/20 11:37:22;;;;;;;5.38;0.57;;;23.10;54.30;;;;;;5090444;28;20051;-42
2021/05/20 11:39:48;;;;;;;1.45;0.60;;;23.10;54.40;;;;;;5092842;27;20039;-42
2021/05/20 11:42:32;;;;;;;1.98;0.50;;;23.10;54.40;;;;;;5085780;28;20027;-43
2021/05/20 11:45:01;;;;;;;2.80;0.60;;;23.20;54.70;;;;;;5086704;28;20065;-44
2021/05/20 11:47:27;;;;;;;0.98;0.68;;;23.30;53.90;;;;;;5089052;28;20040;-44
2021/05/20 11:49:53;;;;;;;1.83;0.60;;;23.20;54.60;;;;;;5090553;27;20036;-44
2021/05/20 11:52:18;;;;;;;0.43;0.40;;;23.20;53.90;;;;;;5089674;28;20058;-44
2021/05/20 11:54:46;;;;;;;1.42;0.68;;;23.20;53.60;;;;;;5087235;27;20088;-43
2021/05/20 11:57:12;;;;;;;1.17;0.40;;;23.20;53.70;;;;;;5089548;28;20075;-44
2021/05/20 11:59:37;;;;;;;1.95;0.75;;;23.20;53.50;;;;;;5088921;28;20031;-43
2021/05/20 12:02:14;;;;;;;1.23;0.50;;;23.10;53.70;;;;;;5090906;27;20024;-44
2021/05/20 12:04:40;;;;;;;1.25;0.40;;;23.10;53.70;;;;;;5087333;28;20039;-41
2021/05/20 12:07:07;;;;;;;1.55;0.47;;;23.20;54.10;;;;;;5088037;28;20119;-38
2021/05/20 12:09:33;;;;;;;1.38;0.50;;;23.20;53.60;;;;;;5086810;28;20445;-29
2021/05/20 12:12:07;;;;;;;2.05;0.32;;;23.20;53.40;;;;;;5086433;28;20028;-42
2021/05/20 12:14:34;;;;;;;0.75;0.40;;;23.10;53.60;;;;;;5067448;28;20757;-22
2021/05/20 12:17:07;;;;;;;1.23;0.63;;;23.10;53.50;;;;;;5088024;28;20509;-42
2021/05/20 12:19:35;;;;;;;0.73;0.50;;;23.10;53.60;;;;;;5088968;28;20109;-42
2021/05/20 12:22:00;;;;;;;1.38;0.50;;;23.10;53.60;;;;;;5085789;27;20119;-42
2021/05/20 12:24:33;;;;;;;1.00;0.60;;;23.20;53.50;;;;;;5086155;28;20038;-27
2021/05/20 12:27:09;;;;;;;0.63;0.32;;;23.10;53.60;;;;;;5084841;28;20036;-30
2021/05/20 12:29:37;;;;;;;0.88;0.38;;;23.00;53.70;;;;;;5088495;28;20051;-41
2021/05/20 12:32:02;;;;;;;0.95;0.30;;;23.10;53.40;;;;;;5086170;28;20027;-44
2021/05/20 12:34:28;;;;;;;0.70;0.30;;;23.10;53.30;;;;;;5098642;27;20088;-42
2021/05/20 12:37:02;;;;;;;1.08;0.40;;;23.10;53.50;;;;;;5098660;27;20040;-44
2021/05/20 12:39:28;;;;;;;1.73;0.43;;;23.10;54.00;;;;;;5097699;28;20062;-40
2021/05/20 12:41:53;;;;;;;0.52;0.32;;;23.10;53.30;;;;;;5097266;28;20020;-43
2021/05/20 12:44:19;;;;;;;2.13;0.40;;;23.10;53.40;;;;;;5095724;28;20047;-43
2021/05/20 12:46:44;;;;;;;2.05;0.35;;;23.10;53.90;;;;;;5095264;28;20497;-35
2021/05/20 12:49:11;;;;;;;2.45;0.47;;;23.10;53.30;;;;;;5077948;28;20027;-42
2021/05/20 12:51:37;;;;;;;1.35;0.60;;;23.10;53.50;;;;;;5068649;28;20390;-44
2021/05/20 12:54:07;;;;;;;1.48;0.50;;;23.20;53.20;;;;;;5079436;28;20035;-41
2021/05/20 12:56:36;;;;;;;1.00;0.32;;;23.20;53.10;;;;;;5098189;28;20044;-43
2021/05/20 12:59:04;;;;;;;1.17;0.52;;;23.20;53.10;;;;;;5097672;28;20409;-43